createdAt,value
2018-09-23T00:02:19.997Z,46.58
2018-09-23T00:04:48.917Z,45.51
2018-09-23T00:07:18.080Z,45.81
2018-09-23T00:09:47.485Z,45.09
2018-09-23T00:12:16.715Z,45.36
2018-09-23T00:14:46.068Z,45.18
2018-09-23T00:17:15.285Z,45.86
2018-09-23T00:19:44.311Z,45.66
2018-09-23T00:22:13.292Z,46.29
2018-09-23T00:24:42.448Z,47.06
2018-09-23T00:27:11.846Z,46.88
2018-09-23T00:29:46.050Z,48.11
2018-09-23T00:32:15.374Z,47.84
2018-09-23T00:34:44.372Z,48.20
2018-09-23T00:37:13.651Z,48.41
2018-09-23T00:39:42.739Z,48.15
2018-09-23T00:42:11.910Z,48.37
2018-09-23T00:44:40.740Z,48.78
2018-09-23T00:47:09.979Z,49.67
2018-09-23T00:49:39.132Z,48.60
2018-09-23T00:52:08.475Z,49.23
2018-09-23T00:54:37.715Z,49.84
2018-09-23T00:57:06.887Z,49.54
2018-09-23T00:59:36.047Z,48.96
2018-09-23T01:02:05.284Z,49.58
2018-09-23T01:04:34.251Z,50.18
2018-09-23T01:07:03.318Z,49.39
2018-09-23T01:09:32.707Z,49.20
2018-09-23T01:12:01.792Z,49.38
2018-09-23T01:14:31.148Z,49.07
2018-09-23T01:17:00.487Z,49.19
2018-09-23T01:19:29.905Z,50.03
2018-09-23T01:21:59.196Z,49.45
2018-09-23T01:24:28.064Z,49.39
2018-09-23T01:26:57.270Z,49.30
2018-09-23T01:29:26.534Z,50.05
2018-09-23T01:31:55.720Z,50.36
2018-09-23T01:34:25.144Z,49.82
2018-09-23T01:36:54.587Z,50.48
2018-09-23T01:39:23.555Z,51.04
2018-09-23T01:41:52.828Z,50.95
2018-09-23T01:44:21.973Z,51.07
2018-09-23T01:46:51.232Z,49.98
2018-09-23T01:49:20.521Z,50.10
2018-09-23T01:51:49.479Z,50.02
2018-09-23T01:54:18.604Z,50.90
2018-09-23T01:56:47.895Z,50.75
2018-09-23T01:59:17.042Z,50.88
2018-09-23T02:01:45.978Z,51.21
2018-09-23T02:04:15.337Z,50.85
2018-09-23T02:06:44.579Z,51.08
2018-09-23T02:09:13.923Z,51.24
2018-09-23T02:11:43.449Z,51.19
2018-09-23T02:14:12.971Z,51.48
2018-09-23T02:16:41.895Z,51.16
2018-09-23T02:19:11.222Z,51.40
2018-09-23T02:21:40.436Z,52.04
2018-09-23T02:24:09.671Z,51.81
2018-09-23T02:26:38.931Z,52.13
2018-09-23T02:29:08.292Z,52.52
2018-09-23T02:31:37.608Z,52.39
2018-09-23T02:34:06.949Z,52.24
2018-09-23T02:36:35.975Z,52.50
2018-09-23T02:39:06.460Z,52.41
2018-09-23T02:41:35.545Z,52.94
2018-09-23T02:44:04.937Z,52.59
2018-09-23T02:46:34.214Z,52.35
2018-09-23T02:49:03.200Z,53.25
2018-09-23T02:51:32.496Z,53.07
2018-09-23T02:54:01.691Z,53.18
2018-09-23T02:56:30.984Z,52.81
2018-09-23T02:58:59.894Z,52.95
2018-09-23T03:01:28.881Z,52.78
2018-09-23T03:03:58.076Z,52.65
2018-09-23T03:06:27.347Z,52.77
2018-09-23T03:08:56.625Z,52.55
2018-09-23T03:11:25.842Z,52.56
2018-09-23T03:13:55.036Z,53.61
2018-09-23T03:16:24.554Z,53.24
2018-09-23T03:18:53.417Z,53.50
2018-09-23T03:21:22.787Z,52.98
2018-09-23T03:23:51.967Z,52.99
2018-09-23T03:26:21.131Z,53.43
2018-09-23T03:28:50.489Z,52.87
2018-09-23T03:31:19.727Z,52.98
2018-09-23T03:33:48.940Z,52.87
2018-09-23T03:36:18.131Z,53.25
2018-09-23T03:38:47.537Z,52.67
2018-09-23T03:41:16.952Z,53.06
2018-09-23T03:43:46.092Z,52.91
2018-09-23T03:46:15.494Z,52.94
2018-09-23T03:48:44.726Z,53.38
2018-09-23T03:51:13.923Z,53.29
2018-09-23T03:53:42.860Z,53.47
2018-09-23T03:56:12.171Z,53.55
2018-09-23T03:58:41.412Z,54.06
2018-09-23T04:01:10.724Z,53.51
2018-09-23T04:03:39.964Z,54.04
2018-09-23T04:06:08.831Z,52.80
2018-09-23T04:08:37.686Z,52.60
2018-09-23T04:11:07.037Z,53.56
2018-09-23T04:13:36.014Z,52.93
2018-09-23T04:16:05.268Z,54.24
2018-09-23T04:18:34.744Z,53.74
2018-09-23T04:21:04.081Z,52.90
2018-09-23T04:23:33.240Z,53.01
2018-09-23T04:26:02.407Z,53.61
2018-09-23T04:28:31.665Z,53.62
2018-09-23T04:31:00.853Z,54.27
2018-09-23T04:33:30.164Z,53.91
2018-09-23T04:35:59.132Z,53.45
2018-09-23T04:38:28.451Z,53.33
2018-09-23T04:40:57.351Z,53.01
2018-09-23T04:43:26.193Z,53.93
2018-09-23T04:45:55.181Z,55.08
2018-09-23T04:48:24.007Z,55.60
2018-09-23T04:50:53.178Z,55.04
2018-09-23T04:53:22.256Z,55.58
2018-09-23T04:55:51.364Z,56.27
2018-09-23T04:58:20.842Z,55.20
2018-09-23T05:00:50.036Z,55.46
2018-09-23T05:03:19.400Z,56.85
2018-09-23T05:05:48.754Z,56.24
2018-09-23T05:08:18.203Z,55.89
2018-09-23T05:10:47.319Z,55.90
2018-09-23T05:13:16.700Z,55.79
2018-09-23T05:15:46.030Z,55.18
2018-09-23T05:18:15.154Z,51.14
2018-09-23T05:20:44.371Z,52.78
2018-09-23T05:23:13.226Z,53.20
2018-09-23T05:25:42.376Z,54.19
2018-09-23T05:28:11.527Z,54.75
2018-09-23T05:30:40.811Z,54.93
2018-09-23T05:33:10.068Z,54.31
2018-09-23T05:35:39.472Z,55.62
2018-09-23T05:38:08.707Z,56.44
2018-09-23T05:40:37.615Z,53.39
2018-09-23T05:43:07.376Z,51.67
2018-09-23T05:45:36.434Z,51.72
2018-09-23T05:48:05.656Z,53.31
2018-09-23T05:50:34.959Z,50.46
2018-09-23T05:53:04.169Z,51.11
2018-09-23T05:55:33.155Z,50.32
2018-09-23T05:58:02.207Z,50.78
2018-09-23T06:00:35.246Z,51.36
2018-09-23T06:03:04.613Z,52.22
2018-09-23T06:05:34.031Z,53.02
2018-09-23T06:08:02.894Z,52.21
2018-09-23T06:10:32.164Z,51.07
2018-09-23T06:13:01.365Z,51.36
2018-09-23T06:15:30.479Z,51.80
2018-09-23T06:17:59.855Z,51.62
2018-09-23T06:20:29.199Z,50.57
2018-09-23T06:22:58.147Z,49.58
2018-09-23T06:25:27.120Z,51.61
2018-09-23T06:27:56.189Z,49.33
2018-09-23T06:30:25.556Z,48.93
2018-09-23T06:32:54.783Z,48.00
2018-09-23T06:35:24.076Z,48.33
2018-09-23T06:37:53.025Z,49.13
2018-09-23T06:40:22.011Z,48.53
2018-09-23T06:42:51.015Z,48.70
2018-09-23T06:45:20.295Z,48.21
2018-09-23T06:47:49.367Z,48.00
2018-09-23T06:50:18.592Z,47.58
2018-09-23T06:52:47.795Z,47.35
2018-09-23T06:55:17.075Z,45.87
2018-09-23T06:57:46.239Z,45.45
2018-09-23T07:00:15.243Z,45.05
2018-09-23T07:02:44.536Z,44.15
2018-09-23T07:05:13.579Z,43.51
2018-09-23T07:07:42.776Z,42.71
2018-09-23T07:10:12.089Z,42.87
2018-09-23T07:12:41.207Z,42.18
2018-09-23T07:15:10.415Z,42.71
2018-09-23T07:17:39.450Z,42.61
2018-09-23T07:20:08.598Z,43.14
2018-09-23T07:22:37.663Z,41.43
2018-09-23T07:25:06.888Z,40.84
2018-09-23T07:27:36.047Z,39.82
2018-09-23T07:30:05.507Z,41.46
2018-09-23T07:32:34.642Z,40.21
2018-09-23T07:35:03.571Z,39.90
2018-09-23T07:37:32.824Z,40.08
2018-09-23T07:40:02.287Z,39.36
2018-09-23T07:42:31.405Z,38.43
2018-09-23T07:45:00.579Z,37.68
2018-09-23T07:47:29.838Z,37.03
2018-09-23T07:49:58.791Z,35.79
2018-09-23T07:52:27.866Z,33.90
2018-09-23T07:54:56.995Z,33.53
2018-09-23T07:57:26.182Z,33.97
2018-09-23T07:59:55.439Z,33.80
2018-09-23T08:02:25.548Z,33.89
2018-09-23T08:04:54.900Z,33.87
2018-09-23T08:07:24.261Z,33.21
2018-09-23T08:09:53.288Z,33.58
2018-09-23T08:12:22.170Z,34.39
2018-09-23T08:14:51.883Z,34.80
2018-09-23T08:17:20.906Z,34.48
2018-09-23T08:19:49.971Z,34.58
2018-09-23T08:22:19.032Z,35.28
2018-09-23T08:24:48.159Z,34.64
2018-09-23T08:27:17.065Z,34.18
2018-09-23T08:29:46.045Z,34.49
2018-09-23T08:32:15.359Z,34.47
2018-09-23T08:34:44.530Z,33.63
2018-09-23T08:37:13.779Z,34.67
2018-09-23T08:39:43.116Z,32.96
2018-09-23T08:42:12.558Z,32.36
2018-09-23T08:44:41.798Z,33.56
2018-09-23T08:47:10.716Z,32.58
2018-09-23T08:49:39.879Z,32.08
2018-09-23T08:52:09.268Z,32.78
2018-09-23T08:54:38.458Z,31.79
2018-09-23T08:57:07.475Z,32.84
2018-09-23T08:59:36.808Z,33.75
2018-09-23T09:02:06.080Z,33.23
2018-09-23T09:04:35.320Z,33.30
2018-09-23T09:07:04.720Z,33.85
2018-09-23T09:09:33.915Z,32.57
2018-09-23T09:12:03.212Z,32.78
2018-09-23T09:14:32.412Z,32.27
2018-09-23T09:17:01.772Z,32.38
2018-09-23T09:19:31.211Z,32.64
2018-09-23T09:22:00.159Z,32.45
2018-09-23T09:24:29.429Z,32.64
2018-09-23T09:26:58.398Z,31.00
2018-09-23T09:29:27.650Z,30.71
2018-09-23T09:31:56.586Z,31.19
2018-09-23T09:34:25.977Z,31.29
2018-09-23T09:36:55.279Z,30.26
2018-09-23T09:39:24.492Z,29.78
2018-09-23T09:41:53.707Z,30.10
2018-09-23T09:44:22.783Z,28.82
2018-09-23T09:46:51.977Z,29.13
2018-09-23T09:49:21.382Z,29.13
2018-09-23T09:51:50.791Z,28.50
2018-09-23T09:54:20.173Z,27.90
2018-09-23T09:56:49.427Z,27.70
2018-09-23T09:59:18.783Z,27.03
2018-09-23T10:01:47.827Z,27.08
2018-09-23T10:04:16.835Z,25.85
2018-09-23T10:06:46.112Z,24.67
2018-09-23T10:09:15.299Z,24.89
2018-09-23T10:11:44.442Z,23.63
2018-09-23T10:14:13.603Z,22.13
2018-09-23T10:16:42.522Z,20.99
2018-09-23T10:19:11.687Z,19.86
2018-09-23T10:21:40.868Z,17.65
2018-09-23T10:24:10.141Z,16.62
2018-09-23T10:26:39.430Z,14.95
2018-09-23T10:29:08.672Z,14.59
2018-09-23T10:31:37.765Z,14.55
2018-09-23T10:34:07.027Z,15.03
2018-09-23T10:36:36.097Z,14.50
2018-09-23T10:39:07.404Z,13.21
2018-09-23T10:41:36.383Z,12.68
2018-09-23T10:44:05.846Z,11.11
2018-09-23T10:46:35.624Z,10.79
2018-09-23T10:49:04.989Z,10.75
2018-09-23T10:51:34.396Z,10.32
2018-09-23T10:54:03.615Z,11.36
2018-09-23T10:56:32.803Z,10.55
2018-09-23T10:59:02.013Z,10.36
2018-09-23T11:01:31.231Z,8.71
2018-09-23T11:04:00.526Z,9.95
2018-09-23T11:06:29.634Z,10.41
2018-09-23T11:08:58.781Z,10.79
2018-09-23T11:11:29.400Z,9.89
2018-09-23T11:13:58.455Z,9.99
2018-09-23T11:16:27.607Z,10.55
2018-09-23T11:18:56.955Z,10.28
2018-09-23T11:21:26.335Z,9.90
2018-09-23T11:23:55.411Z,9.49
2018-09-23T11:26:24.764Z,10.83
2018-09-23T11:28:54.008Z,10.25
2018-09-23T11:31:23.206Z,11.90
2018-09-23T11:33:52.547Z,11.31
2018-09-23T11:36:21.755Z,11.06
2018-09-23T11:38:50.668Z,10.92
2018-09-23T11:41:19.772Z,11.18
2018-09-23T11:43:49.026Z,11.11
2018-09-23T11:46:18.275Z,11.27
2018-09-23T11:48:47.622Z,10.48
2018-09-23T11:51:16.726Z,9.53
2018-09-23T11:53:46.091Z,9.73
2018-09-23T11:56:15.368Z,9.22
2018-09-23T11:58:44.628Z,10.02
2018-09-23T12:01:13.820Z,9.26
2018-09-23T12:03:42.684Z,9.00
2018-09-23T12:06:11.855Z,8.35
2018-09-23T12:08:41.144Z,8.79
2018-09-23T12:11:10.506Z,8.49
2018-09-23T12:13:39.904Z,8.91
2018-09-23T12:16:09.900Z,8.78
2018-09-23T12:18:38.712Z,9.21
2018-09-23T12:21:08.097Z,9.09
2018-09-23T12:23:37.152Z,9.02
2018-09-23T12:26:06.691Z,8.05
2018-09-23T12:28:36.082Z,9.23
2018-09-23T12:31:05.348Z,8.95
2018-09-23T12:33:34.643Z,8.44
2018-09-23T12:36:04.349Z,8.49
2018-09-23T12:38:34.842Z,9.50
2018-09-23T12:41:04.540Z,8.93
2018-09-23T12:43:33.652Z,8.71
2018-09-23T12:46:03.025Z,8.88
2018-09-23T12:48:32.283Z,8.96
2018-09-23T12:51:02.200Z,9.44
2018-09-23T12:53:31.614Z,10.08
2018-09-23T12:56:01.356Z,10.40
2018-09-23T12:58:30.608Z,11.81
2018-09-23T13:00:59.686Z,12.43
2018-09-23T13:03:28.965Z,12.06
2018-09-23T13:05:58.347Z,11.90
2018-09-23T13:08:27.680Z,11.58
2018-09-23T13:10:57.056Z,11.59
2018-09-23T13:13:27.254Z,11.88
2018-09-23T13:15:56.375Z,12.29
2018-09-23T13:18:25.929Z,12.20
2018-09-23T13:20:55.119Z,13.58
2018-09-23T13:23:24.478Z,13.94
2018-09-23T13:25:53.523Z,14.80
2018-09-23T13:28:22.539Z,15.04
2018-09-23T13:30:51.663Z,15.99
2018-09-23T13:33:20.908Z,16.27
2018-09-23T13:35:50.248Z,17.28
2018-09-23T13:38:19.623Z,17.71
2018-09-23T13:40:48.757Z,18.66
2018-09-23T13:43:17.748Z,19.63
2018-09-23T13:45:47.050Z,20.08
2018-09-23T13:48:16.152Z,20.26
2018-09-23T13:50:45.392Z,22.48
2018-09-23T13:53:14.632Z,22.06
2018-09-23T13:55:43.420Z,22.35
2018-09-23T13:58:12.415Z,23.32
2018-09-23T14:00:41.444Z,23.53
2018-09-23T14:03:10.647Z,24.61
2018-09-23T14:05:39.958Z,22.67
2018-09-23T14:08:09.191Z,22.96
2018-09-23T14:10:38.103Z,22.52
2018-09-23T14:13:07.480Z,23.11
2018-09-23T14:15:36.942Z,23.09
2018-09-23T14:18:06.172Z,23.18
2018-09-23T14:20:35.437Z,23.59
2018-09-23T14:23:04.667Z,23.85
2018-09-23T14:25:33.967Z,25.34
2018-09-23T14:28:03.319Z,25.78
2018-09-23T14:30:32.453Z,24.16
2018-09-23T14:33:01.723Z,24.07
2018-09-23T14:35:30.964Z,24.21
2018-09-23T14:37:59.970Z,25.51
2018-09-23T14:40:29.155Z,23.93
2018-09-23T14:42:58.560Z,24.83
2018-09-23T14:45:27.955Z,27.56
2018-09-23T14:47:57.351Z,25.57
2018-09-23T14:50:26.471Z,26.65
2018-09-23T14:52:55.607Z,27.28
2018-09-23T14:55:24.603Z,26.80
2018-09-23T14:57:54.094Z,26.28
2018-09-23T15:00:23.276Z,27.64
2018-09-23T15:02:52.649Z,27.03
2018-09-23T15:05:21.944Z,27.91
2018-09-23T15:07:51.101Z,27.95
2018-09-23T15:10:20.396Z,29.03
2018-09-23T15:12:49.744Z,28.91
2018-09-23T15:15:18.907Z,29.78
2018-09-23T15:17:48.097Z,29.18
2018-09-23T15:20:17.424Z,28.66
2018-09-23T15:22:46.680Z,28.64
2018-09-23T15:25:15.955Z,29.20
2018-09-23T15:27:45.168Z,30.12
2018-09-23T15:30:14.519Z,28.87
2018-09-23T15:32:43.394Z,30.14
2018-09-23T15:35:12.927Z,29.77
2018-09-23T15:37:42.232Z,29.97
2018-09-23T15:40:11.608Z,30.74
2018-09-23T15:42:40.832Z,30.72
2018-09-23T15:45:10.106Z,31.21
2018-09-23T15:47:39.321Z,31.19
2018-09-23T15:50:08.644Z,31.32
2018-09-23T15:52:37.541Z,32.15
2018-09-23T15:55:06.895Z,32.22
2018-09-23T15:57:36.111Z,31.11
2018-09-23T16:00:05.263Z,31.39
2018-09-23T16:02:34.535Z,31.87
2018-09-23T16:05:03.862Z,32.14
2018-09-23T16:07:33.100Z,31.94
2018-09-23T16:10:02.398Z,32.02
2018-09-23T16:12:31.653Z,32.14
2018-09-23T16:15:00.849Z,31.36
2018-09-23T16:17:29.782Z,31.21
2018-09-23T16:19:59.025Z,32.04
2018-09-23T16:22:28.311Z,32.46
2018-09-23T16:24:57.531Z,31.68
2018-09-23T16:27:26.810Z,31.83
2018-09-23T16:29:56.089Z,32.66
2018-09-23T16:32:25.719Z,32.28
2018-09-23T16:34:54.876Z,32.27
2018-09-23T16:37:24.160Z,31.92
2018-09-23T16:39:54.195Z,32.31
2018-09-23T16:42:23.791Z,33.15
2018-09-23T16:44:53.775Z,32.41
2018-09-23T16:47:22.966Z,33.14
2018-09-23T16:49:52.307Z,33.62
2018-09-23T16:52:21.726Z,33.40
2018-09-23T16:54:51.310Z,33.98
2018-09-23T16:57:20.487Z,33.48
2018-09-23T16:59:49.915Z,33.85
2018-09-23T17:02:19.315Z,33.87
2018-09-23T17:04:48.679Z,33.92
2018-09-23T17:07:18.084Z,34.17
2018-09-23T17:09:47.417Z,34.44
2018-09-23T17:12:16.407Z,33.40
2018-09-23T17:14:45.739Z,34.58
2018-09-23T17:17:14.939Z,33.23
2018-09-23T17:19:44.423Z,33.31
2018-09-23T17:22:13.736Z,33.85
2018-09-23T17:24:42.976Z,34.36
2018-09-23T17:27:12.298Z,33.78
2018-09-23T17:29:41.562Z,34.01
2018-09-23T17:32:11.504Z,34.30
2018-09-23T17:34:40.628Z,34.00
2018-09-23T17:37:10.088Z,34.26
2018-09-23T17:39:39.327Z,34.18
2018-09-23T17:42:08.695Z,35.05
2018-09-23T17:44:37.800Z,35.25
2018-09-23T17:47:07.104Z,36.75
2018-09-23T17:49:37.329Z,36.49
2018-09-23T17:52:06.690Z,37.17
2018-09-23T17:54:35.971Z,37.27
2018-09-23T17:57:05.103Z,37.69
2018-09-23T17:59:36.516Z,38.91
2018-09-23T18:02:05.818Z,38.24
2018-09-23T18:04:35.227Z,38.38
2018-09-23T18:07:04.705Z,39.07
2018-09-23T18:09:33.876Z,39.32
2018-09-23T18:12:03.273Z,39.91
2018-09-23T18:14:33.351Z,39.30
2018-09-23T18:17:02.369Z,39.97
2018-09-23T18:19:31.466Z,40.12
2018-09-23T18:22:00.867Z,41.13
2018-09-23T18:24:30.871Z,40.86
2018-09-23T18:27:00.094Z,40.72
2018-09-23T18:29:31.952Z,40.62
2018-09-23T18:32:01.393Z,41.28
2018-09-23T18:34:30.812Z,41.19
2018-09-23T18:37:08.254Z,42.17
2018-09-23T18:39:38.149Z,42.73
2018-09-23T18:42:07.591Z,41.92
2018-09-23T18:44:37.626Z,41.64
2018-09-23T18:47:07.064Z,42.10
2018-09-23T18:49:36.401Z,42.91
2018-09-23T18:52:05.736Z,42.63
2018-09-23T18:55:41.112Z,42.54
2018-09-23T18:58:10.130Z,42.79
2018-09-23T19:00:39.722Z,44.15
2018-09-23T19:03:09.457Z,43.38
2018-09-23T19:05:39.030Z,43.37
2018-09-23T19:08:08.354Z,44.16
2018-09-23T19:10:37.682Z,43.39
2018-09-23T19:13:11.982Z,44.27
2018-09-23T19:15:41.475Z,43.83
2018-09-23T19:18:11.203Z,43.90
2018-09-23T19:20:41.301Z,44.18
2018-09-23T19:23:11.835Z,44.80
2018-09-23T19:25:41.426Z,44.91
2018-09-23T19:28:10.655Z,45.22
2018-09-23T19:30:40.123Z,45.06
2018-09-23T19:33:09.472Z,45.99
2018-09-23T19:35:38.468Z,45.81
2018-09-23T19:38:07.730Z,45.86
2018-09-23T19:40:37.151Z,46.39
2018-09-23T19:43:06.349Z,46.81
2018-09-23T19:45:35.516Z,47.08
2018-09-23T19:48:04.865Z,47.12
2018-09-23T19:50:34.837Z,47.09
2018-09-23T19:53:04.075Z,47.29
2018-09-23T19:55:33.161Z,47.38
2018-09-23T19:58:02.352Z,47.25
2018-09-23T20:00:31.595Z,47.66
2018-09-23T20:03:01.259Z,47.51
2018-09-23T20:05:30.617Z,47.58
2018-09-23T20:07:59.809Z,47.70
2018-09-23T20:10:29.099Z,48.43
2018-09-23T20:12:58.163Z,47.66
2018-09-23T20:15:27.421Z,47.50
2018-09-23T20:17:56.589Z,48.24
2018-09-23T20:20:25.782Z,47.91
2018-09-23T20:22:54.974Z,47.76
2018-09-23T20:25:24.091Z,48.98
2018-09-23T20:27:53.435Z,48.62
2018-09-23T20:30:22.432Z,48.51
2018-09-23T20:32:51.412Z,48.90
2018-09-23T20:35:20.523Z,48.77
2018-09-23T20:37:49.807Z,48.79
2018-09-23T20:40:18.771Z,49.96
2018-09-23T20:42:48.149Z,50.15
2018-09-23T20:45:17.636Z,49.69
2018-09-23T20:47:46.935Z,49.28
2018-09-23T20:50:16.244Z,49.90
2018-09-23T20:52:45.460Z,49.20
2018-09-23T20:55:14.588Z,49.49
2018-09-23T20:57:43.847Z,50.09
2018-09-23T21:00:13.092Z,50.28
2018-09-23T21:02:42.068Z,50.58
2018-09-23T21:05:11.028Z,49.75
2018-09-23T21:07:40.427Z,50.47
2018-09-23T21:10:09.871Z,50.46
2018-09-23T21:12:39.267Z,49.56
2018-09-23T21:15:09.511Z,49.63
2018-09-23T21:17:39.003Z,50.23
2018-09-23T21:20:08.527Z,50.08
2018-09-23T21:22:37.804Z,49.68
2018-09-23T21:25:07.157Z,50.08
2018-09-23T21:27:36.569Z,49.77
2018-09-23T21:30:05.919Z,50.03
2018-09-23T21:32:34.791Z,49.51
2018-09-23T21:35:04.167Z,49.50
2018-09-23T21:37:33.544Z,50.06
2018-09-23T21:40:02.915Z,49.17
2018-09-23T21:42:32.453Z,49.86
2018-09-23T21:45:01.251Z,49.84
2018-09-23T21:47:30.647Z,49.92
2018-09-23T21:49:59.833Z,50.07
2018-09-23T21:52:29.131Z,49.80
2018-09-23T21:54:57.968Z,49.84
2018-09-23T21:57:27.325Z,50.64
2018-09-23T21:59:56.643Z,50.22
2018-09-23T22:02:25.880Z,50.58
2018-09-23T22:04:55.063Z,51.74
2018-09-23T22:07:24.307Z,51.70
2018-09-23T22:09:53.263Z,51.81
2018-09-23T22:12:22.446Z,52.16
2018-09-23T22:14:51.597Z,51.07
2018-09-23T22:17:20.891Z,52.37
2018-09-23T22:19:49.815Z,52.35
2018-09-23T22:22:19.248Z,52.65
2018-09-23T22:24:48.484Z,52.24
2018-09-23T22:27:17.663Z,53.36
2018-09-23T22:29:46.974Z,53.97
2018-09-23T22:32:15.923Z,53.49
2018-09-23T22:34:45.235Z,53.90
2018-09-23T22:37:14.304Z,53.30
2018-09-23T22:39:43.330Z,54.33
2018-09-23T22:42:12.616Z,54.11
2018-09-23T22:44:42.068Z,54.97
2018-09-23T22:47:11.416Z,54.24
2018-09-23T22:49:40.449Z,54.76
2018-09-23T22:52:09.803Z,55.38
2018-09-23T22:54:39.011Z,54.53
2018-09-23T22:57:08.343Z,55.41
2018-09-23T22:59:37.271Z,54.91
2018-09-23T23:02:06.547Z,55.48
2018-09-23T23:04:35.887Z,54.82
2018-09-23T23:07:05.093Z,55.71
2018-09-23T23:09:34.575Z,56.34
2018-09-23T23:12:03.912Z,55.59
2018-09-23T23:14:33.343Z,56.00
2018-09-23T23:17:02.229Z,56.91
2018-09-23T23:19:31.518Z,56.57
2018-09-23T23:22:00.761Z,55.77
2018-09-23T23:24:30.123Z,56.41
2018-09-23T23:26:59.460Z,55.99
2018-09-23T23:29:28.684Z,56.42
2018-09-23T23:31:57.981Z,56.44
2018-09-23T23:34:27.187Z,57.15
2018-09-23T23:36:56.436Z,56.85
2018-09-23T23:39:25.774Z,57.15
2018-09-23T23:41:55.031Z,57.26
2018-09-23T23:44:24.272Z,56.40
2018-09-23T23:46:53.258Z,57.10
2018-09-23T23:49:22.404Z,57.60
2018-09-23T23:51:51.755Z,57.76
2018-09-23T23:54:21.003Z,57.89
2018-09-23T23:56:50.057Z,57.75
2018-09-23T23:59:18.918Z,58.13
